Time;durP1;ratioP1;P1;durP2;ratioP2;P2;SDS_P1;SDS_P2;PMS_P1;PMS_P2;Temp;Humidity;BMP_temperature;BMP_pressure;BME280_temperature;BME280_humidity;BME280_pressure;Samples;Min_cycle;Max_cycle;Signal;HPM_P1;HPM_P2
2023/12/10 00:02:25;;;;;;;7.18;1.83;;;16.10;78.30;;;;;;5970801;22;45252;-62
2023/12/10 00:05:04;;;;;;;5.90;1.80;;;16.10;78.20;;;;;;5997770;22;47448;-62
2023/12/10 00:07:56;;;;;;;6.07;1.73;;;16.10;78.20;;;;;;5995298;22;45072;-62
2023/12/10 00:10:31;;;;;;;6.45;2.10;;;16.10;78.40;;;;;;5960343;22;45271;-62
2023/12/10 00:16:08;;;;;;;6.82;1.45;;;16.10;78.00;;;;;;5939575;22;45712;-62
2023/12/10 00:18:54;;;;;;;6.15;1.70;;;16.10;78.10;;;;;;6003462;22;45039;-62
2023/12/10 00:21:24;;;;;;;7.13;1.63;;;16.10;78.10;;;;;;5977906;22;45223;-62
2023/12/10 00:24:22;;;;;;;7.85;2.15;;;16.10;78.50;;;;;;5965848;22;45166;-62
2023/12/10 00:27:11;;;;;;;6.65;2.22;;;16.10;77.90;;;;;;5986788;22;46612;-62
2023/12/10 00:29:39;;;;;;;6.00;1.45;;;16.10;78.20;;;;;;5970931;22;45071;-62
2023/12/10 00:32:24;;;;;;;7.97;2.10;;;16.10;78.00;;;;;;5982433;22;45140;-62
2023/12/10 00:34:51;;;;;;;7.50;2.00;;;16.10;78.00;;;;;;5970324;22;45348;-62
2023/12/10 00:37:55;;;;;;;6.10;1.75;;;16.10;77.90;;;;;;5983460;22;45894;-62
2023/12/10 00:40:22;;;;;;;7.97;1.83;;;16.10;77.90;;;;;;5977443;22;45134;-62
2023/12/10 00:42:51;;;;;;;8.02;1.95;;;16.10;77.50;;;;;;5952232;22;45016;-61
2023/12/10 00:45:39;;;;;;;8.35;2.00;;;16.20;77.80;;;;;;5945288;22;45354;-62
2023/12/10 00:48:20;;;;;;;6.20;1.95;;;16.20;77.70;;;;;;5980452;22;46382;-62
2023/12/10 00:50:47;;;;;;;10.98;1.80;;;16.10;77.70;;;;;;5954507;22;45376;-62
2023/12/10 00:53:39;;;;;;;7.57;1.85;;;16.20;77.70;;;;;;5986844;22;45105;-61
2023/12/10 00:56:27;;;;;;;7.15;1.80;;;16.20;77.60;;;;;;5978976;22;45134;-61
2023/12/10 00:59:06;;;;;;;4.93;1.50;;;16.20;77.60;;;;;;5955738;22;47424;-61
2023/12/10 01:01:58;;;;;;;9.15;2.10;;;16.20;77.30;;;;;;5959025;22;45031;-61
2023/12/10 01:05:02;;;;;;;8.23;1.83;;;16.20;76.90;;;;;;5960829;22;45291;-61
2023/12/10 01:07:31;;;;;;;8.25;2.45;;;16.20;76.90;;;;;;5966261;22;44855;-61
2023/12/10 01:09:58;;;;;;;6.75;1.80;;;16.20;77.20;;;;;;5970110;22;46411;-61
2023/12/10 01:12:47;;;;;;;7.50;2.13;;;16.20;77.00;;;;;;5994607;22;45127;-61
2023/12/10 01:15:36;;;;;;;10.65;2.25;;;16.20;76.60;;;;;;5988570;22;45302;-61
2023/12/10 01:18:33;;;;;;;9.30;2.47;;;16.20;77.00;;;;;;5968888;22;45131;-61
2023/12/10 01:21:21;;;;;;;7.43;1.92;;;16.20;76.70;;;;;;5956215;22;45936;-61
2023/12/10 01:24:15;;;;;;;6.97;2.58;;;16.20;77.00;;;;;;5975406;22;45186;-61
2023/12/10 01:26:43;;;;;;;8.98;2.25;;;16.20;76.80;;;;;;5979686;22;45410;-61
2023/12/10 01:29:39;;;;;;;8.35;2.20;;;16.20;76.70;;;;;;5983803;22;45052;-60
2023/12/10 01:32:07;;;;;;;7.10;1.85;;;16.20;76.80;;;;;;5956803;22;46636;-61
2023/12/10 01:35:11;;;;;;;8.07;2.03;;;16.20;77.00;;;;;;5977921;22;45290;-61
2023/12/10 01:37:40;;;;;;;8.23;2.08;;;16.20;76.50;;;;;;5962651;22;45212;-60
2023/12/10 01:40:26;;;;;;;8.25;2.05;;;16.20;77.30;;;;;;5999553;22;45251;-60
2023/12/10 01:42:55;;;;;;;7.45;1.83;;;16.20;76.90;;;;;;5960164;22;45349;-61
2023/12/10 01:45:22;;;;;;;8.48;1.80;;;16.20;77.40;;;;;;5981730;22;44868;-61
2023/12/10 01:48:04;;;;;;;8.43;1.67;;;16.20;77.30;;;;;;5953383;22;45354;-61
2023/12/10 01:50:35;;;;;;;5.93;1.77;;;16.20;77.40;;;;;;6003496;22;45244;-61
2023/12/10 01:53:22;;;;;;;8.52;1.70;;;16.20;77.50;;;;;;5984306;22;45660;-60
2023/12/10 01:55:50;;;;;;;7.93;1.85;;;16.20;77.40;;;;;;5978607;22;45249;-61
2023/12/10 01:58:17;;;;;;;7.90;2.03;;;16.30;77.70;;;;;;5948076;22;45306;-60
2023/12/10 02:01:05;;;;;;;7.47;1.88;;;16.30;77.40;;;;;;5947285;22;45241;-61
2023/12/10 02:03:45;;;;;;;6.85;1.70;;;16.20;77.40;;;;;;5975082;22;45641;-60
2023/12/10 02:31:55;;;;;;;6.05;1.60;;;16.30;76.30;;;;;;5929713;22;1402435;-60
2023/12/10 02:37:23;;;;;;;9.45;1.83;;;16.20;75.20;;;;;;5987894;22;45146;-60
2023/12/10 02:43:01;;;;;;;5.65;1.95;;;16.20;75.00;;;;;;6016724;22;45269;-60
2023/12/10 02:45:49;;;;;;;6.05;1.83;;;16.20;76.00;;;;;;6005046;22;45102;-60
2023/12/10 02:48:21;;;;;;;5.75;1.50;;;16.20;76.30;;;;;;6020760;22;45216;-60
2023/12/10 02:50:50;;;;;;;6.30;1.42;;;16.20;76.40;;;;;;6007383;22;45142;-60
2023/12/10 02:53:30;;;;;;;8.68;1.95;;;16.20;76.50;;;;;;6002012;22;45606;-60
2023/12/10 02:56:19;;;;;;;8.07;1.98;;;16.30;76.00;;;;;;6010962;22;45265;-60
2023/12/10 02:58:47;;;;;;;6.55;2.08;;;16.30;75.90;;;;;;6040892;22;45482;-60
2023/12/10 03:01:35;;;;;;;7.03;1.95;;;16.20;75.00;;;;;;6011121;22;45252;-60
2023/12/10 03:04:04;;;;;;;5.97;1.73;;;16.20;75.60;;;;;;6001715;22;45716;-60
2023/12/10 03:06:32;;;;;;;4.95;1.50;;;16.20;75.20;;;;;;5994110;22;45133;-60
2023/12/10 03:09:23;;;;;;;7.68;1.50;;;16.20;75.70;;;;;;6017254;22;45044;-60
2023/12/10 03:11:51;;;;;;;10.68;1.80;;;16.20;75.30;;;;;;6001468;22;45042;-60
2023/12/10 03:14:52;;;;;;;5.72;1.20;;;16.20;75.30;;;;;;6010478;22;47068;-60
2023/12/10 03:17:34;;;;;;;5.95;1.40;;;16.20;75.10;;;;;;6009446;22;45084;-60
2023/12/10 03:23:13;;;;;;;7.63;1.38;;;16.20;75.90;;;;;;5992418;22;45132;-60
2023/12/10 03:25:46;;;;;;;5.25;1.17;;;16.20;75.60;;;;;;5998653;22;45875;-60
2023/12/10 03:28:26;;;;;;;5.45;1.40;;;16.20;76.20;;;;;;6010067;22;45799;-60
2023/12/10 03:30:57;;;;;;;7.35;1.40;;;16.20;76.20;;;;;;5986742;22;45040;-60
2023/12/10 03:33:46;;;;;;;4.90;1.45;;;16.20;76.40;;;;;;6029668;22;45213;-59
2023/12/10 03:36:37;;;;;;;5.50;1.15;;;16.20;76.30;;;;;;6040487;22;45238;-60
2023/12/10 03:39:25;;;;;;;4.35;1.17;;;16.20;75.90;;;;;;5977599;22;45294;-60
2023/12/10 03:42:05;;;;;;;5.93;1.85;;;16.20;75.00;;;;;;5987381;22;45270;-60
2023/12/10 03:44:32;;;;;;;5.90;1.73;;;16.20;75.00;;;;;;6001603;22;45111;-60
2023/12/10 03:49:40;;;;;;;6.32;1.55;;;16.20;75.00;;;;;;6014238;22;45111;-60
2023/12/10 03:52:11;;;;;;;5.07;1.48;;;16.20;75.00;;;;;;6048679;22;45331;-60
2023/12/10 03:54:39;;;;;;;5.80;1.48;;;16.20;75.00;;;;;;6016513;22;45360;-60
2023/12/10 03:57:06;;;;;;;6.43;1.42;;;16.20;75.00;;;;;;6006717;22;46552;-60
2023/12/10 03:59:33;;;;;;;6.00;1.52;;;16.20;75.00;;;;;;6016071;22;45270;-60
2023/12/10 04:01:59;;;;;;;5.57;1.50;;;16.20;75.00;;;;;;6005067;22;45246;-60
2023/12/10 04:04:38;;;;;;;4.10;1.02;;;16.20;75.60;;;;;;6012404;22;45437;-60
2023/12/10 04:07:05;;;;;;;4.75;1.55;;;16.20;75.60;;;;;;6016433;22;46064;-60
2023/12/10 04:09:34;;;;;;;7.82;1.38;;;16.20;75.70;;;;;;5988107;22;45237;-60
2023/12/10 04:12:01;;;;;;;7.15;1.50;;;16.20;75.80;;;;;;5998242;22;45111;-60
2023/12/10 04:14:51;;;;;;;5.22;1.20;;;16.20;75.80;;;;;;5995409;22;45179;-59
2023/12/10 04:17:18;;;;;;;5.38;1.35;;;16.20;76.10;;;;;;6027675;22;47230;-60
2023/12/10 04:19:58;;;;;;;2.45;1.13;;;16.20;75.90;;;;;;5992034;22;45211;-60
2023/12/10 04:22:24;;;;;;;5.38;1.55;;;16.20;75.40;;;;;;5993577;22;45014;-59
2023/12/10 04:25:15;;;;;;;5.63;1.52;;;16.20;75.00;;;;;;5999415;22;45599;-60
2023/12/10 04:27:43;;;;;;;7.13;1.60;;;16.20;75.80;;;;;;5994232;22;46470;-59
2023/12/10 04:30:48;;;;;;;4.88;1.42;;;16.20;75.20;;;;;;6047342;22;45193;-60
2023/12/10 04:33:28;;;;;;;5.40;1.33;;;16.20;75.00;;;;;;6000467;22;45618;-59
2023/12/10 04:35:55;;;;;;;6.72;1.70;;;16.20;75.00;;;;;;6026465;22;44814;-60
2023/12/10 04:38:23;;;;;;;4.72;1.40;;;16.20;75.00;;;;;;6039640;22;45889;-60
2023/12/10 04:41:07;;;;;;;6.13;1.48;;;16.20;75.00;;;;;;5999516;22;45196;-59
2023/12/10 04:43:34;;;;;;;5.38;1.75;;;16.20;75.00;;;;;;6010498;22;45224;-59
2023/12/10 04:46:17;;;;;;;4.47;1.60;;;16.20;74.90;;;;;;5986330;22;45057;-59
2023/12/10 04:49:01;;;;;;;6.13;1.52;;;16.20;75.00;;;;;;6006900;22;46338;-59
2023/12/10 04:52:09;;;;;;;8.23;1.90;;;16.20;75.00;;;;;;5988786;22;45174;-60
2023/12/10 04:55:01;;;;;;;6.80;1.58;;;16.20;75.00;;;;;;5995686;22;45448;-60
2023/12/10 04:57:30;;;;;;;4.93;1.30;;;16.20;75.00;;;;;;5991721;22;45161;-60
2023/12/10 05:00:01;;;;;;;6.45;1.52;;;16.20;75.00;;;;;;6043285;22;46233;-60
2023/12/10 05:02:46;;;;;;;5.93;1.45;;;16.20;75.00;;;;;;5979384;22;45305;-59
2023/12/10 05:05:28;;;;;;;3.47;1.30;;;16.20;75.00;;;;;;5989420;22;45170;-59
2023/12/10 05:07:55;;;;;;;8.32;1.92;;;16.20;75.00;;;;;;5999336;22;45205;-59
2023/12/10 05:10:23;;;;;;;3.15;1.17;;;16.20;75.00;;;;;;5986692;22;46434;-59
2023/12/10 05:13:19;;;;;;;5.78;1.48;;;16.20;75.00;;;;;;6000934;22;45221;-59
2023/12/10 05:16:08;;;;;;;5.80;1.52;;;16.20;75.00;;;;;;6004332;22;45150;-59
2023/12/10 05:18:47;;;;;;;6.70;2.00;;;16.20;75.00;;;;;;6018350;22;45363;-59
2023/12/10 05:21:14;;;;;;;9.32;1.90;;;16.20;74.50;;;;;;6005423;22;45471;-59
2023/12/10 05:24:06;;;;;;;6.28;1.70;;;16.20;74.30;;;;;;5984295;22;45350;-59
2023/12/10 05:26:52;;;;;;;8.00;1.92;;;16.20;73.80;;;;;;6033488;22;45299;-59
2023/12/10 05:29:20;;;;;;;6.57;1.92;;;16.20;73.60;;;;;;5978968;22;45090;-59
2023/12/10 05:31:47;;;;;;;4.85;1.30;;;16.20;73.40;;;;;;6011345;22;46128;-59
2023/12/10 05:34:15;;;;;;;7.00;1.20;;;16.20;73.30;;;;;;6001813;22;45084;-59
2023/12/10 05:36:43;;;;;;;5.40;1.30;;;16.20;73.30;;;;;;5974280;22;45262;-59
2023/12/10 05:39:10;;;;;;;4.43;1.35;;;16.20;73.20;;;;;;6005221;22;45077;-59
2023/12/10 05:42:10;;;;;;;6.28;1.60;;;16.20;73.70;;;;;;5995654;22;48070;-59
2023/12/10 05:44:59;;;;;;;5.28;1.35;;;16.20;73.80;;;;;;6015464;22;45278;-59
2023/12/10 05:47:40;;;;;;;5.53;1.33;;;16.20;74.00;;;;;;5980606;22;45458;-59
2023/12/10 05:50:33;;;;;;;6.68;1.50;;;16.20;74.00;;;;;;6030351;22;45542;-59
2023/12/10 05:53:15;;;;;;;5.97;1.73;;;16.20;74.30;;;;;;6001125;22;47168;-59
2023/12/10 05:55:58;;;;;;;4.80;1.30;;;16.20;74.00;;;;;;6017258;22;45159;-59
2023/12/10 05:58:25;;;;;;;4.97;1.58;;;16.20;74.10;;;;;;5995385;22;45116;-59
2023/12/10 06:04:37;;;;;;;8.57;2.05;;;16.20;73.90;;;;;;6009158;22;46145;-59
2023/12/10 06:07:31;;;;;;;4.57;1.27;;;16.20;73.30;;;;;;5994788;22;45482;-59
2023/12/10 06:09:58;;;;;;;4.63;1.42;;;16.20;73.00;;;;;;5974115;22;45134;-59
2023/12/10 06:12:25;;;;;;;6.78;1.58;;;16.20;72.60;;;;;;5999262;22;45066;-58
2023/12/10 06:15:01;;;;;;;5.70;1.10;;;16.20;72.50;;;;;;5969204;22;46326;-59
2023/12/10 06:17:54;;;;;;;4.88;1.20;;;16.20;71.30;;;;;;5991873;22;45276;-59
2023/12/10 06:20:52;;;;;;;5.47;1.50;;;16.20;71.60;;;;;;5987232;22;45048;-59
2023/12/10 06:23:21;;;;;;;4.70;1.20;;;16.20;71.20;;;;;;6000645;22;45091;-58
2023/12/10 06:26:09;;;;;;;4.78;1.00;;;16.20;71.70;;;;;;5991330;22;47001;-59
2023/12/10 06:28:39;;;;;;;4.68;1.42;;;16.20;71.70;;;;;;5995167;22;45346;-59
2023/12/10 06:31:14;;;;;;;4.03;1.00;;;16.20;72.10;;;;;;6012296;22;45292;-58
2023/12/10 06:34:16;;;;;;;4.40;1.73;;;16.20;72.50;;;;;;6040646;22;45380;-58
2023/12/10 06:36:45;;;;;;;6.30;1.25;;;16.20;72.90;;;;;;6010040;22;46336;-58
2023/12/10 06:39:42;;;;;;;3.92;1.25;;;16.20;73.50;;;;;;5994454;22;45170;-58
2023/12/10 06:42:10;;;;;;;5.93;1.35;;;16.20;73.50;;;;;;6010292;22;44813;-58
2023/12/10 06:44:38;;;;;;;4.68;1.08;;;16.20;73.40;;;;;;5992827;22;45104;-58
2023/12/10 06:47:05;;;;;;;4.32;0.98;;;16.20;73.80;;;;;;6023120;22;46854;-58
2023/12/10 06:50:04;;;;;;;6.20;1.85;;;16.20;73.20;;;;;;5995010;22;45220;-58
2023/12/10 06:52:46;;;;;;;6.22;0.95;;;16.20;73.00;;;;;;5993180;22;45216;-58
2023/12/10 06:55:25;;;;;;;8.13;1.85;;;16.20;73.10;;;;;;5989422;22;45292;-58
2023/12/10 06:58:05;;;;;;;5.10;1.30;;;16.20;72.70;;;;;;5971739;22;46221;-58
2023/12/10 07:01:10;;;;;;;7.63;1.40;;;16.20;72.40;;;;;;5995726;22;44809;-58
2023/12/10 07:03:37;;;;;;;6.82;1.65;;;16.20;72.60;;;;;;5973342;22;45226;-58
2023/12/10 07:06:04;;;;;;;3.65;1.17;;;16.20;72.60;;;;;;6001910;22;45353;-58
2023/12/10 07:09:08;;;;;;;4.25;1.48;;;16.20;71.90;;;;;;6040489;22;47507;-58
2023/12/10 07:11:58;;;;;;;7.40;1.60;;;16.20;72.20;;;;;;5982422;22;45279;-58
2023/12/10 07:14:25;;;;;;;6.93;1.50;;;16.20;72.10;;;;;;6008002;22;44970;-58
2023/12/10 07:17:04;;;;;;;5.97;1.40;;;16.20;72.10;;;;;;5978920;22;45295;-58
2023/12/10 07:19:53;;;;;;;5.75;1.52;;;16.10;72.00;;;;;;6001735;22;45814;-58
2023/12/10 07:22:38;;;;;;;5.85;1.88;;;16.20;71.90;;;;;;6022785;22;45121;-58
2023/12/10 07:25:31;;;;;;;5.50;1.50;;;16.20;71.30;;;;;;6008673;22;45310;-58
2023/12/10 07:28:25;;;;;;;7.47;1.60;;;16.20;71.80;;;;;;6026753;22;45314;-58
2023/12/10 07:30:52;;;;;;;5.80;1.10;;;16.20;72.00;;;;;;6009227;22;47172;-58
2023/12/10 07:33:37;;;;;;;5.75;1.33;;;16.20;71.40;;;;;;6027651;22;45016;-58
2023/12/10 07:36:25;;;;;;;8.82;1.75;;;16.20;71.90;;;;;;6037329;22;45440;-58
2023/12/10 07:38:52;;;;;;;6.28;1.83;;;16.20;71.70;;;;;;5963327;22;45478;-58
2023/12/10 07:41:26;;;;;;;6.30;1.52;;;16.10;71.50;;;;;;5990275;22;47254;-58
2023/12/10 07:43:56;;;;;;;8.27;1.60;;;16.20;72.00;;;;;;5993690;22;45114;-58
2023/12/10 07:46:41;;;;;;;4.75;1.33;;;16.20;72.00;;;;;;6020223;22;45372;-58
2023/12/10 07:49:08;;;;;;;7.35;1.52;;;16.20;70.90;;;;;;5984653;22;45266;-58
2023/12/10 07:51:36;;;;;;;5.55;1.40;;;16.20;71.30;;;;;;6034969;22;45983;-58
2023/12/10 07:54:30;;;;;;;5.38;1.35;;;16.10;71.00;;;;;;6004467;22;45138;-58
2023/12/10 07:57:08;;;;;;;5.80;1.50;;;16.20;71.40;;;;;;5988161;22;45225;-58
2023/12/10 07:59:36;;;;;;;6.55;1.63;;;16.10;70.90;;;;;;6026158;22;45265;-58
2023/12/10 08:02:18;;;;;;;9.85;2.08;;;16.10;71.70;;;;;;6025079;22;45674;-58
2023/12/10 08:05:11;;;;;;;7.40;1.67;;;16.10;71.60;;;;;;5983367;22;45380;-58
2023/12/10 08:07:38;;;;;;;6.35;1.38;;;16.20;71.40;;;;;;5990752;22;45130;-58
2023/12/10 08:10:28;;;;;;;7.38;1.70;;;16.20;71.60;;;;;;6057350;22;45185;-58
2023/12/10 08:13:12;;;;;;;4.88;1.50;;;16.20;71.50;;;;;;5987945;22;46116;-58
2023/12/10 08:15:39;;;;;;;4.70;1.40;;;16.20;71.60;;;;;;5992594;22;44977;-58
2023/12/10 08:18:32;;;;;;;5.20;1.50;;;16.20;71.40;;;;;;6032484;22;45489;-58
2023/12/10 08:21:01;;;;;;;4.55;1.40;;;16.20;71.70;;;;;;5994004;22;45340;-58
2023/12/10 08:23:28;;;;;;;5.45;1.10;;;16.20;71.30;;;;;;5997118;22;47401;-58
2023/12/10 08:26:19;;;;;;;5.32;1.33;;;16.20;71.00;;;;;;6020367;22;44881;-58
2023/12/10 08:29:17;;;;;;;4.55;1.52;;;16.20;70.70;;;;;;6011586;22;45096;-58
2023/12/10 08:32:10;;;;;;;5.55;1.23;;;16.20;70.50;;;;;;6032081;22;45148;-58
2023/12/10 08:34:37;;;;;;;5.90;1.23;;;16.20;70.80;;;;;;5978900;22;46019;-58
2023/12/10 08:37:23;;;;;;;5.93;1.42;;;16.20;71.00;;;;;;6011149;22;45386;-58
2023/12/10 08:40:21;;;;;;;7.38;2.00;;;16.10;70.50;;;;;;6004119;22;45083;-58
2023/12/10 08:43:00;;;;;;;4.63;1.30;;;16.20;70.90;;;;;;5981009;22;45242;-58
2023/12/10 08:46:09;;;;;;;7.00;1.40;;;16.10;70.70;;;;;;6004566;22;45646;-58
2023/12/10 08:48:45;;;;;;;5.03;1.20;;;16.20;71.30;;;;;;5997165;22;45452;-58
2023/12/10 08:53:52;;;;;;;4.88;1.20;;;16.20;71.10;;;;;;5980264;22;45261;-58
2023/12/10 08:56:21;;;;;;;3.17;1.25;;;16.20;71.20;;;;;;6005359;22;47173;-58
2023/12/10 08:59:08;;;;;;;6.82;1.38;;;16.20;71.20;;;;;;5995922;22;45212;-58
2023/12/10 09:01:49;;;;;;;4.13;1.20;;;16.20;71.20;;;;;;6004078;22;45396;-58
2023/12/10 09:04:16;;;;;;;5.38;1.50;;;16.20;70.90;;;;;;6025779;22;45340;-58
2023/12/10 09:07:02;;;;;;;5.57;1.60;;;16.20;71.60;;;;;;6007964;22;46299;-58
2023/12/10 09:10:01;;;;;;;5.22;1.30;;;16.20;71.40;;;;;;6011098;22;45419;-58
2023/12/10 09:12:58;;;;;;;9.02;2.00;;;16.20;70.90;;;;;;6018987;22;45335;-58
2023/12/10 09:15:50;;;;;;;5.65;1.45;;;16.20;70.60;;;;;;5986496;22;45072;-58
2023/12/10 09:18:20;;;;;;;6.80;1.70;;;16.20;70.10;;;;;;5991403;22;45811;-58
2023/12/10 09:21:08;;;;;;;5.20;1.23;;;16.20;70.60;;;;;;5991821;22;45144;-58
2023/12/10 09:23:35;;;;;;;7.57;1.42;;;16.20;70.70;;;;;;6025819;22;45192;-58
2023/12/10 09:26:14;;;;;;;3.83;1.05;;;16.20;70.60;;;;;;5994783;22;45381;-58
2023/12/10 09:29:09;;;;;;;5.43;1.33;;;16.20;70.70;;;;;;6008149;22;46637;-58
2023/12/10 09:31:37;;;;;;;5.75;1.60;;;16.10;70.40;;;;;;5999774;22;45294;-58
2023/12/10 09:34:11;;;;;;;4.07;1.20;;;16.20;70.60;;;;;;5974476;22;45425;-58
2023/12/10 09:37:04;;;;;;;7.22;1.30;;;16.20;71.10;;;;;;6021602;22;45151;-58
2023/12/10 09:39:52;;;;;;;5.30;1.30;;;16.20;71.30;;;;;;6026390;22;45802;-59
2023/12/10 09:45:00;;;;;;;5.35;1.50;;;16.20;71.40;;;;;;5983459;22;45480;-59
2023/12/10 09:47:30;;;;;;;5.65;1.35;;;16.20;71.30;;;;;;6023382;22;45248;-59
2023/12/10 09:50:42;;;;;;;4.93;1.10;;;16.20;71.30;;;;;;6003134;22;45101;-58
2023/12/10 09:53:21;;;;;;;5.43;1.50;;;16.20;71.30;;;;;;5985955;22;45308;-59
2023/12/10 09:55:48;;;;;;;3.17;0.98;;;16.20;71.00;;;;;;5996054;22;45054;-59
2023/12/10 09:58:16;;;;;;;6.65;1.88;;;16.20;71.10;;;;;;5986227;22;45145;-58
2023/12/10 10:01:13;;;;;;;4.50;1.48;;;16.20;71.20;;;;;;5991051;22;47513;-59
2023/12/10 10:04:11;;;;;;;5.65;1.50;;;16.20;70.60;;;;;;5991861;22;45385;-59
2023/12/10 10:06:51;;;;;;;5.88;1.52;;;16.20;70.70;;;;;;5990064;22;45161;-59
2023/12/10 10:09:47;;;;;;;3.88;1.42;;;16.20;70.50;;;;;;5985501;22;45086;-59
2023/12/10 10:12:36;;;;;;;4.13;1.13;;;16.20;70.70;;;;;;6010657;22;46292;-59
2023/12/10 10:15:37;;;;;;;5.35;1.60;;;16.20;70.70;;;;;;5995580;22;45372;-59
2023/12/10 10:18:16;;;;;;;3.72;1.05;;;16.20;70.70;;;;;;5827178;23;45323;-59
2023/12/10 10:21:27;;;;;;;4.75;1.35;;;16.20;70.80;;;;;;5840648;23;45460;-59
2023/12/10 10:24:18;;;;;;;4.60;1.27;;;16.20;70.60;;;;;;5980715;22;46272;-59
2023/12/10 10:29:55;;;;;;;57.03;4.63;;;16.20;70.80;;;;;;5976586;22;45165;-56
2023/12/10 10:32:51;;;;;;;43.17;4.45;;;16.20;72.20;;;;;;5974081;22;45213;-58
2023/12/10 10:35:20;;;;;;;26.00;2.25;;;16.30;72.50;;;;;;5976706;22;45192;-57
2023/12/10 10:37:56;;;;;;;17.70;2.38;;;16.20;71.80;;;;;;5998520;22;45404;-57
2023/12/10 10:40:37;;;;;;;5.85;1.58;;;16.20;71.10;;;;;;5986794;22;45016;-58
2023/12/10 10:43:07;;;;;;;9.95;1.75;;;16.20;70.50;;;;;;6014313;22;45252;-58
2023/12/10 10:45:48;;;;;;;12.32;2.00;;;16.20;70.10;;;;;;6019135;22;46247;-57
2023/12/10 10:48:24;;;;;;;8.85;1.80;;;16.20;70.00;;;;;;6015529;22;45296;-58
2023/12/10 10:53:43;;;;;;;9.40;2.28;;;16.20;70.70;;;;;;5976893;22;45351;-57
2023/12/10 10:56:30;;;;;;;7.95;1.75;;;16.20;69.10;;;;;;6006436;22;47142;-58
2023/12/10 11:00:03;;;;;;;6.75;1.60;;;16.30;69.10;;;;;;6013603;22;45308;-57
2023/12/10 11:03:18;;;;;;;9.38;1.90;;;16.30;69.00;;;;;;5838995;23;45203;-58
2023/12/10 11:05:45;;;;;;;5.40;1.70;;;16.40;68.70;;;;;;5876577;23;45166;-59
2023/12/10 11:08:37;;;;;;;8.43;1.90;;;16.30;68.20;;;;;;6004371;22;47869;-59
2023/12/10 11:11:19;;;;;;;9.27;1.90;;;16.30;68.00;;;;;;6048833;22;45320;-58
2023/12/10 11:13:57;;;;;;;5.88;1.55;;;16.30;68.00;;;;;;6030069;22;45081;-59
2023/12/10 11:16:26;;;;;;;6.80;2.00;;;16.30;67.80;;;;;;6006723;22;45140;-59
2023/12/10 11:19:06;;;;;;;7.28;1.73;;;16.40;67.90;;;;;;5990227;22;46247;-59
2023/12/10 11:22:02;;;;;;;8.57;1.90;;;16.40;68.00;;;;;;5987859;22;45187;-58
2023/12/10 11:24:42;;;;;;;7.35;1.52;;;16.40;68.00;;;;;;6004349;22;45279;-59
2023/12/10 11:27:49;;;;;;;7.78;1.80;;;16.40;68.60;;;;;;5999489;22;45467;-59
2023/12/10 11:30:20;;;;;;;6.10;1.80;;;16.40;69.10;;;;;;6031808;22;46301;-60
2023/12/10 11:33:08;;;;;;;9.88;2.05;;;16.40;69.60;;;;;;5978046;22;44827;-60
2023/12/10 11:35:40;;;;;;;12.00;2.42;;;16.30;69.90;;;;;;5972060;22;45289;-60
2023/12/10 11:38:09;;;;;;;8.05;1.77;;;16.30;70.30;;;;;;5981884;22;45230;-59
2023/12/10 11:40:53;;;;;;;9.35;1.75;;;16.30;70.50;;;;;;5975760;22;46349;-59
2023/12/10 11:43:20;;;;;;;7.85;2.10;;;16.30;70.60;;;;;;5953318;22;44966;-59
2023/12/10 11:45:47;;;;;;;6.55;1.70;;;16.30;71.70;;;;;;5987593;22;45205;-59
2023/12/10 11:48:27;;;;;;;9.15;1.92;;;16.30;70.80;;;;;;5967722;22;45234;-59
2023/12/10 11:50:58;;;;;;;7.72;1.95;;;16.30;70.90;;;;;;6006475;22;46004;-59
2023/12/10 11:53:40;;;;;;;7.70;1.90;;;16.40;70.90;;;;;;5973687;22;45195;-59
2023/12/10 11:56:09;;;;;;;7.72;1.75;;;16.30;70.80;;;;;;5986516;22;45066;-59
2023/12/10 11:58:52;;;;;;;7.05;1.70;;;16.30;71.00;;;;;;6034207;22;45326;-59
2023/12/10 12:01:32;;;;;;;7.88;2.00;;;16.40;71.20;;;;;;5927891;22;46240;-59
2023/12/10 12:04:27;;;;;;;6.22;1.67;;;16.40;71.30;;;;;;5998373;22;45283;-59
2023/12/10 12:06:55;;;;;;;8.05;1.77;;;16.40;71.00;;;;;;5958613;22;45054;-59
2023/12/10 12:09:40;;;;;;;5.18;1.42;;;16.40;70.80;;;;;;5968687;22;45391;-59
2023/12/10 12:12:59;;;;;;;6.68;1.90;;;16.40;70.80;;;;;;5955762;22;47213;-60
2023/12/10 12:15:48;;;;;;;8.52;1.63;;;16.50;70.60;;;;;;5957654;22;45400;-59
2023/12/10 12:18:34;;;;;;;8.20;1.92;;;16.50;70.10;;;;;;5967617;22;45238;-60
2023/12/10 12:21:12;;;;;;;7.20;1.58;;;16.60;70.10;;;;;;6028142;22;45368;-59
2023/12/10 12:23:41;;;;;;;7.43;1.90;;;16.50;70.00;;;;;;5945508;22;46933;-60
2023/12/10 12:26:09;;;;;;;6.28;1.88;;;16.60;70.30;;;;;;5947779;22;45280;-60
2023/12/10 12:28:58;;;;;;;6.20;1.83;;;16.60;70.50;;;;;;5989160;22;45101;-60
2023/12/10 12:34:47;;;;;;;5.07;1.60;;;16.50;70.50;;;;;;5925473;22;46074;-59
2023/12/10 12:37:23;;;;;;;5.97;1.85;;;16.50;70.60;;;;;;6003641;22;45245;-59
2023/12/10 12:40:30;;;;;;;5.60;1.85;;;16.50;70.50;;;;;;6024919;22;45233;-59
2023/12/10 12:43:00;;;;;;;6.28;2.05;;;16.50;70.50;;;;;;5985731;22;45293;-59
2023/12/10 12:45:27;;;;;;;7.85;1.83;;;16.50;70.90;;;;;;5999359;22;46471;-59
2023/12/10 12:47:55;;;;;;;7.32;1.48;;;16.50;70.30;;;;;;6039999;22;44863;-59
2023/12/10 12:50:34;;;;;;;5.25;1.25;;;16.60;70.30;;;;;;5994875;22;45294;-59
2023/12/10 12:53:00;;;;;;;4.80;1.58;;;16.60;70.10;;;;;;5984754;22;45286;-59
2023/12/10 12:55:44;;;;;;;6.25;1.52;;;16.60;70.10;;;;;;6000019;22;46157;-60
2023/12/10 12:58:33;;;;;;;6.55;1.50;;;16.60;70.20;;;;;;6025312;22;45318;-59
2023/12/10 13:01:00;;;;;;;5.75;1.80;;;16.60;70.30;;;;;;5993529;22;45070;-60
2023/12/10 13:07:01;;;;;;;5.53;1.80;;;16.60;70.50;;;;;;5932299;22;45177;-59
2023/12/10 13:09:55;;;;;;;6.78;1.70;;;16.60;70.50;;;;;;5992128;22;45383;-59
2023/12/10 13:12:24;;;;;;;5.82;1.35;;;16.60;70.70;;;;;;5978000;22;45201;-59
2023/12/10 13:14:52;;;;;;;3.50;1.00;;;16.60;70.70;;;;;;5993115;22;45028;-59
2023/12/10 13:17:31;;;;;;;5.40;1.35;;;16.60;70.90;;;;;;5994808;22;45384;-59
2023/12/10 13:20:19;;;;;;;7.10;1.65;;;16.50;70.80;;;;;;5994978;22;44924;-58
2023/12/10 13:23:14;;;;;;;5.80;1.70;;;16.50;70.90;;;;;;6007956;22;45036;-59
2023/12/10 13:25:57;;;;;;;6.25;1.77;;;16.50;70.90;;;;;;5989521;22;45147;-59
2023/12/10 13:28:38;;;;;;;8.25;1.80;;;16.50;71.00;;;;;;5992256;22;45262;-59
2023/12/10 13:31:30;;;;;;;5.75;1.60;;;16.50;71.00;;;;;;6005906;22;45211;-59
2023/12/10 13:34:58;;;;;;;6.35;1.85;;;16.50;71.00;;;;;;6020863;22;45478;-59
2023/12/10 13:37:36;;;;;;;5.53;1.30;;;16.50;71.10;;;;;;5988846;22;45587;-59
2023/12/10 13:40:08;;;;;;;5.05;1.50;;;16.50;71.00;;;;;;5994633;22;45361;-58
2023/12/10 13:42:55;;;;;;;3.97;1.20;;;16.60;71.20;;;;;;6009595;22;45282;-58
2023/12/10 13:45:25;;;;;;;3.95;1.25;;;16.60;71.20;;;;;;5974899;22;45148;-59
2023/12/10 13:47:52;;;;;;;6.78;1.42;;;16.60;71.10;;;;;;6017437;22;45146;-59
2023/12/10 13:50:20;;;;;;;7.22;1.90;;;16.50;71.00;;;;;;6005095;22;46536;-59
2023/12/10 13:56:50;;;;;;;6.25;1.42;;;16.50;71.40;;;;;;5940648;22;45104;-59
2023/12/10 13:59:50;;;;;;;7.72;1.90;;;16.50;71.30;;;;;;6000242;22;45150;-58
2023/12/10 14:03:12;;;;;;;4.80;1.33;;;16.50;71.50;;;;;;5989759;22;46205;-59
2023/12/10 14:05:39;;;;;;;10.60;1.60;;;16.50;71.70;;;;;;5987820;22;45327;-59
2023/12/10 14:08:07;;;;;;;4.22;1.58;;;16.50;71.80;;;;;;5982581;22;45188;-59
2023/12/10 14:11:00;;;;;;;3.92;1.38;;;16.50;72.00;;;;;;6016389;22;45041;-59
2023/12/10 14:13:48;;;;;;;6.13;1.80;;;16.50;72.10;;;;;;5988266;22;47288;-59
2023/12/10 14:16:35;;;;;;;4.82;1.38;;;16.50;71.90;;;;;;5974365;22;45265;-59
2023/12/10 14:19:10;;;;;;;3.50;1.17;;;16.50;72.00;;;;;;5987330;22;45565;-59
2023/12/10 14:21:53;;;;;;;5.68;1.50;;;16.50;72.00;;;;;;6032864;22;45082;-59
2023/12/10 14:24:20;;;;;;;5.32;1.45;;;16.50;72.00;;;;;;6003272;22;46934;-58
2023/12/10 14:27:15;;;;;;;4.53;1.08;;;16.50;71.20;;;;;;6024039;22;45091;-58
2023/12/10 14:29:42;;;;;;;5.25;1.50;;;16.50;70.70;;;;;;5980538;22;45556;-59
2023/12/10 14:32:36;;;;;;;5.10;1.35;;;16.50;70.30;;;;;;6047499;22;45234;-59
2023/12/10 14:38:15;;;;;;;6.38;1.42;;;16.50;70.00;;;;;;5966479;22;45139;-59
2023/12/10 14:41:03;;;;;;;7.15;1.75;;;16.50;69.70;;;;;;6026014;22;45032;-59
2023/12/10 14:43:30;;;;;;;7.70;1.63;;;16.40;69.60;;;;;;6014764;22;45013;-59
2023/12/10 14:45:57;;;;;;;6.78;1.58;;;16.40;69.60;;;;;;6005325;22;46155;-58
2023/12/10 14:48:43;;;;;;;4.75;1.50;;;16.40;69.40;;;;;;5999622;22;45221;-58
2023/12/10 14:51:41;;;;;;;5.35;1.48;;;16.40;69.30;;;;;;6009216;22;45306;-58
2023/12/10 14:54:08;;;;;;;6.13;1.55;;;16.40;69.10;;;;;;6035095;22;45599;-58
2023/12/10 14:56:47;;;;;;;6.53;1.50;;;16.40;69.10;;;;;;6016920;22;46080;-58
2023/12/10 14:59:46;;;;;;;3.95;1.20;;;16.50;68.80;;;;;;6041844;22;45269;-58
2023/12/10 15:02:59;;;;;;;6.70;1.52;;;16.50;68.80;;;;;;6066558;22;45258;-58
2023/12/10 15:05:49;;;;;;;6.20;1.50;;;16.40;69.00;;;;;;6005467;22;45335;-58